sensor_id;sensor_type;location;lat;lon;timestamp;P1;durP1;ratioP1;P2;durP2;ratioP2
48550;SDS011;34397;51.176;6.738;2024-02-26T00:00:30;1.95;;;0.70;;
48550;SDS011;34397;51.176;6.738;2024-02-26T00:03:02;1.58;;;0.70;;
48550;SDS011;34397;51.176;6.738;2024-02-26T00:05:34;2.83;;;1.40;;
48550;SDS011;34397;51.176;6.738;2024-02-26T00:08:08;2.03;;;0.95;;
48550;SDS011;34397;51.176;6.738;2024-02-26T00:10:39;2.15;;;0.88;;
48550;SDS011;34397;51.176;6.738;2024-02-26T00:13:12;2.63;;;0.80;;
48550;SDS011;34397;51.176;6.738;2024-02-26T00:15:45;1.15;;;0.80;;
48550;SDS011;34397;51.176;6.738;2024-02-26T00:18:17;2.42;;;0.82;;
48550;SDS011;34397;51.176;6.738;2024-02-26T00:20:49;2.08;;;0.85;;
48550;SDS011;34397;51.176;6.738;2024-02-26T00:23:21;2.45;;;1.08;;
48550;SDS011;34397;51.176;6.738;2024-02-26T00:25:54;2.40;;;1.15;;
48550;SDS011;34397;51.176;6.738;2024-02-26T00:28:25;3.40;;;1.20;;
48550;SDS011;34397;51.176;6.738;2024-02-26T00:31:00;2.83;;;1.30;;
48550;SDS011;34397;51.176;6.738;2024-02-26T00:33:32;2.15;;;1.15;;
48550;SDS011;34397;51.176;6.738;2024-02-26T00:36:04;2.13;;;0.95;;
48550;SDS011;34397;51.176;6.738;2024-02-26T00:38:37;1.98;;;0.95;;
48550;SDS011;34397;51.176;6.738;2024-02-26T00:41:09;1.58;;;0.80;;
48550;SDS011;34397;51.176;6.738;2024-02-26T00:43:41;2.00;;;0.98;;
48550;SDS011;34397;51.176;6.738;2024-02-26T00:46:14;2.58;;;0.90;;
48550;SDS011;34397;51.176;6.738;2024-02-26T00:48:46;1.50;;;0.80;;
48550;SDS011;34397;51.176;6.738;2024-02-26T00:51:18;2.08;;;0.93;;
48550;SDS011;34397;51.176;6.738;2024-02-26T00:53:50;2.00;;;0.93;;
48550;SDS011;34397;51.176;6.738;2024-02-26T00:56:21;1.08;;;0.80;;
48550;SDS011;34397;51.176;6.738;2024-02-26T00:58:53;1.52;;;0.70;;
48550;SDS011;34397;51.176;6.738;2024-02-26T01:01:27;1.10;;;0.70;;
48550;SDS011;34397;51.176;6.738;2024-02-26T01:03:58;1.48;;;0.90;;
48550;SDS011;34397;51.176;6.738;2024-02-26T01:06:30;1.38;;;0.80;;
48550;SDS011;34397;51.176;6.738;2024-02-26T01:09:02;2.17;;;0.77;;
48550;SDS011;34397;51.176;6.738;2024-02-26T01:11:34;1.95;;;0.65;;
48550;SDS011;34397;51.176;6.738;2024-02-26T01:14:06;2.97;;;0.70;;
48550;SDS011;34397;51.176;6.738;2024-02-26T01:16:39;0.93;;;0.60;;
48550;SDS011;34397;51.176;6.738;2024-02-26T01:19:11;1.30;;;0.70;;
48550;SDS011;34397;51.176;6.738;2024-02-26T01:21:43;1.75;;;0.50;;
48550;SDS011;34397;51.176;6.738;2024-02-26T01:24:15;1.27;;;0.52;;
48550;SDS011;34397;51.176;6.738;2024-02-26T01:26:47;1.50;;;0.70;;
48550;SDS011;34397;51.176;6.738;2024-02-26T01:29:19;1.42;;;0.60;;
48550;SDS011;34397;51.176;6.738;2024-02-26T01:31:52;1.25;;;0.70;;
48550;SDS011;34397;51.176;6.738;2024-02-26T01:34:25;1.60;;;0.60;;
48550;SDS011;34397;51.176;6.738;2024-02-26T01:36:56;1.05;;;0.70;;
48550;SDS011;34397;51.176;6.738;2024-02-26T01:39:28;2.25;;;0.85;;
48550;SDS011;34397;51.176;6.738;2024-02-26T01:42:00;2.55;;;1.20;;
48550;SDS011;34397;51.176;6.738;2024-02-26T01:44:32;1.50;;;0.80;;
48550;SDS011;34397;51.176;6.738;2024-02-26T01:47:07;2.13;;;0.63;;
48550;SDS011;34397;51.176;6.738;2024-02-26T01:49:41;1.40;;;0.60;;
48550;SDS011;34397;51.176;6.738;2024-02-26T01:52:13;5.93;;;0.70;;
48550;SDS011;34397;51.176;6.738;2024-02-26T01:57:17;0.93;;;0.50;;
48550;SDS011;34397;51.176;6.738;2024-02-26T01:59:49;1.65;;;0.60;;
48550;SDS011;34397;51.176;6.738;2024-02-26T02:02:22;0.77;;;0.50;;
48550;SDS011;34397;51.176;6.738;2024-02-26T02:04:55;2.75;;;0.52;;
48550;SDS011;34397;51.176;6.738;2024-02-26T02:07:26;2.25;;;0.68;;
48550;SDS011;34397;51.176;6.738;2024-02-26T02:10:00;1.65;;;0.60;;
48550;SDS011;34397;51.176;6.738;2024-02-26T02:12:32;1.48;;;0.52;;
48550;SDS011;34397;51.176;6.738;2024-02-26T02:15:06;0.75;;;0.40;;
48550;SDS011;34397;51.176;6.738;2024-02-26T02:17:40;3.25;;;0.47;;
48550;SDS011;34397;51.176;6.738;2024-02-26T02:20:15;1.17;;;0.52;;
48550;SDS011;34397;51.176;6.738;2024-02-26T02:22:49;1.67;;;0.50;;
48550;SDS011;34397;51.176;6.738;2024-02-26T02:25:21;2.72;;;0.60;;
48550;SDS011;34397;51.176;6.738;2024-02-26T02:27:53;1.33;;;0.60;;
48550;SDS011;34397;51.176;6.738;2024-02-26T02:30:28;1.30;;;0.60;;
48550;SDS011;34397;51.176;6.738;2024-02-26T02:33:03;1.45;;;0.50;;
48550;SDS011;34397;51.176;6.738;2024-02-26T02:38:08;1.23;;;0.50;;
48550;SDS011;34397;51.176;6.738;2024-02-26T02:40:40;1.95;;;0.47;;
48550;SDS011;34397;51.176;6.738;2024-02-26T02:43:12;2.20;;;0.90;;
48550;SDS011;34397;51.176;6.738;2024-02-26T02:45:44;3.22;;;0.70;;
48550;SDS011;34397;51.176;6.738;2024-02-26T02:48:16;3.95;;;1.33;;
48550;SDS011;34397;51.176;6.738;2024-02-26T02:50:47;1.48;;;0.63;;
48550;SDS011;34397;51.176;6.738;2024-02-26T02:53:21;2.78;;;0.70;;
48550;SDS011;34397;51.176;6.738;2024-02-26T02:55:53;1.60;;;0.90;;
48550;SDS011;34397;51.176;6.738;2024-02-26T02:58:24;1.33;;;0.73;;
48550;SDS011;34397;51.176;6.738;2024-02-26T03:00:56;2.60;;;0.60;;
48550;SDS011;34397;51.176;6.738;2024-02-26T03:03:30;0.80;;;0.60;;
48550;SDS011;34397;51.176;6.738;2024-02-26T03:06:02;1.17;;;0.70;;
48550;SDS011;34397;51.176;6.738;2024-02-26T03:08:35;1.25;;;0.77;;
48550;SDS011;34397;51.176;6.738;2024-02-26T03:11:12;3.33;;;0.80;;
48550;SDS011;34397;51.176;6.738;2024-02-26T03:13:45;0.98;;;0.57;;
48550;SDS011;34397;51.176;6.738;2024-02-26T03:16:16;1.98;;;0.85;;
48550;SDS011;34397;51.176;6.738;2024-02-26T03:18:48;3.33;;;0.88;;
48550;SDS011;34397;51.176;6.738;2024-02-26T03:21:20;1.05;;;0.60;;
48550;SDS011;34397;51.176;6.738;2024-02-26T03:23:54;1.35;;;0.70;;
48550;SDS011;34397;51.176;6.738;2024-02-26T03:26:25;1.58;;;0.63;;
48550;SDS011;34397;51.176;6.738;2024-02-26T03:28:57;1.95;;;0.77;;
48550;SDS011;34397;51.176;6.738;2024-02-26T03:31:29;2.67;;;0.80;;
48550;SDS011;34397;51.176;6.738;2024-02-26T03:34:01;1.48;;;0.77;;
48550;SDS011;34397;51.176;6.738;2024-02-26T03:36:33;1.75;;;0.68;;
48550;SDS011;34397;51.176;6.738;2024-02-26T03:39:06;1.08;;;0.70;;
48550;SDS011;34397;51.176;6.738;2024-02-26T03:41:39;1.60;;;0.88;;
48550;SDS011;34397;51.176;6.738;2024-02-26T03:44:10;0.98;;;0.68;;
48550;SDS011;34397;51.176;6.738;2024-02-26T03:46:42;1.60;;;0.70;;
48550;SDS011;34397;51.176;6.738;2024-02-26T03:49:14;1.38;;;0.70;;
48550;SDS011;34397;51.176;6.738;2024-02-26T03:51:46;0.93;;;0.70;;
48550;SDS011;34397;51.176;6.738;2024-02-26T03:54:19;2.08;;;0.70;;
48550;SDS011;34397;51.176;6.738;2024-02-26T03:56:51;1.27;;;0.70;;
48550;SDS011;34397;51.176;6.738;2024-02-26T03:59:23;3.83;;;1.00;;
48550;SDS011;34397;51.176;6.738;2024-02-26T04:01:55;3.25;;;0.80;;
48550;SDS011;34397;51.176;6.738;2024-02-26T04:04:27;1.85;;;0.82;;
48550;SDS011;34397;51.176;6.738;2024-02-26T04:06:58;1.77;;;0.70;;
48550;SDS011;34397;51.176;6.738;2024-02-26T04:09:32;2.08;;;0.63;;
48550;SDS011;34397;51.176;6.738;2024-02-26T04:12:04;2.55;;;0.68;;
48550;SDS011;34397;51.176;6.738;2024-02-26T04:14:37;1.90;;;1.00;;
48550;SDS011;34397;51.176;6.738;2024-02-26T04:17:09;1.20;;;0.68;;
48550;SDS011;34397;51.176;6.738;2024-02-26T04:19:41;1.48;;;0.68;;
48550;SDS011;34397;51.176;6.738;2024-02-26T04:22:13;1.65;;;0.70;;
48550;SDS011;34397;51.176;6.738;2024-02-26T04:24:46;0.85;;;0.60;;
48550;SDS011;34397;51.176;6.738;2024-02-26T04:27:18;1.13;;;0.80;;
48550;SDS011;34397;51.176;6.738;2024-02-26T04:29:49;1.45;;;0.73;;
48550;SDS011;34397;51.176;6.738;2024-02-26T04:32:21;3.53;;;0.70;;
48550;SDS011;34397;51.176;6.738;2024-02-26T04:34:53;1.35;;;0.70;;
48550;SDS011;34397;51.176;6.738;2024-02-26T04:37:25;1.75;;;0.90;;
48550;SDS011;34397;51.176;6.738;2024-02-26T04:40:02;0.90;;;0.60;;
48550;SDS011;34397;51.176;6.738;2024-02-26T04:42:35;1.63;;;0.70;;
48550;SDS011;34397;51.176;6.738;2024-02-26T04:45:07;1.67;;;0.73;;
48550;SDS011;34397;51.176;6.738;2024-02-26T04:47:39;1.10;;;0.70;;
48550;SDS011;34397;51.176;6.738;2024-02-26T04:50:11;1.75;;;0.95;;
48550;SDS011;34397;51.176;6.738;2024-02-26T04:52:43;3.38;;;1.00;;
48550;SDS011;34397;51.176;6.738;2024-02-26T04:55:16;5.55;;;1.10;;
48550;SDS011;34397;51.176;6.738;2024-02-26T04:57:48;1.00;;;0.73;;
48550;SDS011;34397;51.176;6.738;2024-02-26T05:00:20;1.73;;;1.20;;
48550;SDS011;34397;51.176;6.738;2024-02-26T05:02:52;1.88;;;1.02;;
48550;SDS011;34397;51.176;6.738;2024-02-26T05:05:24;2.60;;;1.00;;
48550;SDS011;34397;51.176;6.738;2024-02-26T05:07:56;2.20;;;0.77;;
48550;SDS011;34397;51.176;6.738;2024-02-26T05:10:29;1.05;;;0.75;;
48550;SDS011;34397;51.176;6.738;2024-02-26T05:13:01;1.20;;;0.80;;
48550;SDS011;34397;51.176;6.738;2024-02-26T05:15:32;1.33;;;0.70;;
48550;SDS011;34397;51.176;6.738;2024-02-26T05:18:04;1.55;;;1.00;;
48550;SDS011;34397;51.176;6.738;2024-02-26T05:20:37;2.70;;;0.90;;
48550;SDS011;34397;51.176;6.738;2024-02-26T05:23:09;1.77;;;0.90;;
48550;SDS011;34397;51.176;6.738;2024-02-26T05:25:42;1.60;;;0.80;;
48550;SDS011;34397;51.176;6.738;2024-02-26T05:28:17;1.60;;;0.88;;
48550;SDS011;34397;51.176;6.738;2024-02-26T05:30:50;2.58;;;0.77;;
48550;SDS011;34397;51.176;6.738;2024-02-26T05:33:22;3.10;;;1.20;;
48550;SDS011;34397;51.176;6.738;2024-02-26T05:35:55;1.23;;;0.90;;
48550;SDS011;34397;51.176;6.738;2024-02-26T05:38:27;1.25;;;0.80;;
48550;SDS011;34397;51.176;6.738;2024-02-26T05:41:00;1.80;;;0.95;;
48550;SDS011;34397;51.176;6.738;2024-02-26T05:43:32;2.72;;;1.20;;
48550;SDS011;34397;51.176;6.738;2024-02-26T05:46:03;3.70;;;0.82;;
48550;SDS011;34397;51.176;6.738;2024-02-26T05:48:35;3.53;;;1.00;;
48550;SDS011;34397;51.176;6.738;2024-02-26T05:51:07;1.25;;;0.85;;
48550;SDS011;34397;51.176;6.738;2024-02-26T05:53:40;2.50;;;0.95;;
48550;SDS011;34397;51.176;6.738;2024-02-26T05:56:14;1.42;;;1.00;;
48550;SDS011;34397;51.176;6.738;2024-02-26T05:58:45;3.08;;;1.33;;
48550;SDS011;34397;51.176;6.738;2024-02-26T06:01:17;1.58;;;0.98;;
48550;SDS011;34397;51.176;6.738;2024-02-26T06:03:50;1.92;;;1.10;;
48550;SDS011;34397;51.176;6.738;2024-02-26T06:06:22;2.97;;;1.05;;
48550;SDS011;34397;51.176;6.738;2024-02-26T06:08:54;1.67;;;0.90;;
48550;SDS011;34397;51.176;6.738;2024-02-26T06:11:27;2.92;;;1.08;;
48550;SDS011;34397;51.176;6.738;2024-02-26T06:13:59;2.88;;;1.20;;
48550;SDS011;34397;51.176;6.738;2024-02-26T06:16:31;3.00;;;1.20;;
48550;SDS011;34397;51.176;6.738;2024-02-26T06:19:03;2.83;;;0.95;;
48550;SDS011;34397;51.176;6.738;2024-02-26T06:21:35;2.40;;;1.27;;
48550;SDS011;34397;51.176;6.738;2024-02-26T06:24:07;2.80;;;1.42;;
48550;SDS011;34397;51.176;6.738;2024-02-26T06:26:40;2.75;;;1.63;;
48550;SDS011;34397;51.176;6.738;2024-02-26T06:29:11;2.88;;;1.25;;
48550;SDS011;34397;51.176;6.738;2024-02-26T06:31:43;2.50;;;1.50;;
48550;SDS011;34397;51.176;6.738;2024-02-26T06:34:15;5.65;;;1.50;;
48550;SDS011;34397;51.176;6.738;2024-02-26T06:36:47;2.88;;;1.52;;
48550;SDS011;34397;51.176;6.738;2024-02-26T06:39:19;3.00;;;1.30;;
48550;SDS011;34397;51.176;6.738;2024-02-26T06:41:52;2.15;;;1.30;;
48550;SDS011;34397;51.176;6.738;2024-02-26T06:44:29;2.08;;;1.40;;
48550;SDS011;34397;51.176;6.738;2024-02-26T06:47:02;2.78;;;1.40;;
48550;SDS011;34397;51.176;6.738;2024-02-26T06:49:34;2.70;;;1.50;;
48550;SDS011;34397;51.176;6.738;2024-02-26T06:52:06;2.88;;;1.38;;
48550;SDS011;34397;51.176;6.738;2024-02-26T06:54:38;2.70;;;1.40;;
48550;SDS011;34397;51.176;6.738;2024-02-26T06:57:11;2.08;;;1.45;;
48550;SDS011;34397;51.176;6.738;2024-02-26T06:59:43;3.90;;;1.67;;
48550;SDS011;34397;51.176;6.738;2024-02-26T07:02:17;2.28;;;1.50;;
48550;SDS011;34397;51.176;6.738;2024-02-26T07:04:49;3.08;;;1.92;;
48550;SDS011;34397;51.176;6.738;2024-02-26T07:07:21;2.25;;;1.52;;
48550;SDS011;34397;51.176;6.738;2024-02-26T07:09:54;2.63;;;1.50;;
48550;SDS011;34397;51.176;6.738;2024-02-26T07:12:27;3.47;;;1.55;;
48550;SDS011;34397;51.176;6.738;2024-02-26T07:14:59;4.47;;;1.55;;
48550;SDS011;34397;51.176;6.738;2024-02-26T07:17:32;2.70;;;1.88;;
48550;SDS011;34397;51.176;6.738;2024-02-26T07:20:04;2.67;;;1.70;;
48550;SDS011;34397;51.176;6.738;2024-02-26T07:22:38;3.33;;;1.80;;
48550;SDS011;34397;51.176;6.738;2024-02-26T07:25:09;2.50;;;1.70;;
48550;SDS011;34397;51.176;6.738;2024-02-26T07:27:44;5.00;;;2.00;;
48550;SDS011;34397;51.176;6.738;2024-02-26T07:30:16;2.53;;;1.80;;
48550;SDS011;34397;51.176;6.738;2024-02-26T07:32:48;4.18;;;1.95;;
48550;SDS011;34397;51.176;6.738;2024-02-26T07:35:19;3.33;;;2.00;;
48550;SDS011;34397;51.176;6.738;2024-02-26T07:37:51;7.30;;;1.65;;
48550;SDS011;34397;51.176;6.738;2024-02-26T07:40:22;3.03;;;2.00;;
48550;SDS011;34397;51.176;6.738;2024-02-26T07:42:56;4.05;;;1.95;;
48550;SDS011;34397;51.176;6.738;2024-02-26T07:45:28;3.85;;;2.00;;
48550;SDS011;34397;51.176;6.738;2024-02-26T07:47:59;4.10;;;2.47;;
48550;SDS011;34397;51.176;6.738;2024-02-26T07:50:31;2.20;;;1.92;;
48550;SDS011;34397;51.176;6.738;2024-02-26T07:53:03;3.92;;;2.15;;
48550;SDS011;34397;51.176;6.738;2024-02-26T07:55:35;4.55;;;1.75;;
48550;SDS011;34397;51.176;6.738;2024-02-26T07:58:08;4.22;;;1.95;;
48550;SDS011;34397;51.176;6.738;2024-02-26T08:00:40;4.25;;;1.90;;
48550;SDS011;34397;51.176;6.738;2024-02-26T08:03:12;3.83;;;1.73;;
48550;SDS011;34397;51.176;6.738;2024-02-26T08:05:45;2.25;;;1.70;;
48550;SDS011;34397;51.176;6.738;2024-02-26T08:08:18;3.88;;;1.95;;
48550;SDS011;34397;51.176;6.738;2024-02-26T08:10:50;15.00;;;2.55;;
48550;SDS011;34397;51.176;6.738;2024-02-26T08:13:23;5.80;;;1.92;;
48550;SDS011;34397;51.176;6.738;2024-02-26T08:15:54;5.15;;;1.77;;
48550;SDS011;34397;51.176;6.738;2024-02-26T08:18:26;2.35;;;1.65;;
48550;SDS011;34397;51.176;6.738;2024-02-26T08:20:58;3.05;;;1.83;;
48550;SDS011;34397;51.176;6.738;2024-02-26T08:23:30;2.92;;;1.70;;
48550;SDS011;34397;51.176;6.738;2024-02-26T08:26:02;2.92;;;1.45;;
48550;SDS011;34397;51.176;6.738;2024-02-26T08:28:38;3.45;;;1.52;;
48550;SDS011;34397;51.176;6.738;2024-02-26T08:31:10;3.30;;;1.52;;
48550;SDS011;34397;51.176;6.738;2024-02-26T08:33:42;6.47;;;1.70;;
48550;SDS011;34397;51.176;6.738;2024-02-26T08:36:14;3.70;;;1.58;;
48550;SDS011;34397;51.176;6.738;2024-02-26T08:38:46;3.25;;;2.03;;
48550;SDS011;34397;51.176;6.738;2024-02-26T08:41:18;2.30;;;1.60;;
48550;SDS011;34397;51.176;6.738;2024-02-26T08:43:51;2.67;;;1.50;;
48550;SDS011;34397;51.176;6.738;2024-02-26T08:46:23;1.90;;;1.35;;
48550;SDS011;34397;51.176;6.738;2024-02-26T08:48:54;2.47;;;1.52;;
48550;SDS011;34397;51.176;6.738;2024-02-26T08:51:26;2.15;;;1.33;;
48550;SDS011;34397;51.176;6.738;2024-02-26T08:53:58;2.47;;;1.30;;
48550;SDS011;34397;51.176;6.738;2024-02-26T08:56:30;2.58;;;1.15;;
48550;SDS011;34397;51.176;6.738;2024-02-26T08:59:03;4.30;;;1.50;;
48550;SDS011;34397;51.176;6.738;2024-02-26T09:01:35;4.10;;;1.33;;
48550;SDS011;34397;51.176;6.738;2024-02-26T09:04:07;2.72;;;1.30;;
48550;SDS011;34397;51.176;6.738;2024-02-26T09:06:38;3.28;;;1.60;;
48550;SDS011;34397;51.176;6.738;2024-02-26T09:09:10;3.17;;;1.40;;
48550;SDS011;34397;51.176;6.738;2024-02-26T09:11:42;2.15;;;1.10;;
48550;SDS011;34397;51.176;6.738;2024-02-26T09:14:15;2.92;;;1.20;;
48550;SDS011;34397;51.176;6.738;2024-02-26T09:16:47;2.95;;;1.60;;
48550;SDS011;34397;51.176;6.738;2024-02-26T09:19:19;2.22;;;1.38;;
48550;SDS011;34397;51.176;6.738;2024-02-26T09:21:51;2.05;;;1.40;;
48550;SDS011;34397;51.176;6.738;2024-02-26T09:24:24;2.65;;;1.27;;
48550;SDS011;34397;51.176;6.738;2024-02-26T09:26:57;3.67;;;1.30;;
48550;SDS011;34397;51.176;6.738;2024-02-26T09:29:30;3.35;;;1.23;;
48550;SDS011;34397;51.176;6.738;2024-02-26T09:32:03;2.67;;;1.60;;
48550;SDS011;34397;51.176;6.738;2024-02-26T09:37:07;2.63;;;1.48;;
48550;SDS011;34397;51.176;6.738;2024-02-26T09:39:39;5.32;;;1.80;;
48550;SDS011;34397;51.176;6.738;2024-02-26T09:42:10;3.95;;;1.40;;
48550;SDS011;34397;51.176;6.738;2024-02-26T09:44:46;2.53;;;1.50;;
48550;SDS011;34397;51.176;6.738;2024-02-26T09:47:21;3.33;;;1.40;;
48550;SDS011;34397;51.176;6.738;2024-02-26T09:49:54;4.13;;;1.50;;
48550;SDS011;34397;51.176;6.738;2024-02-26T09:52:28;3.47;;;1.40;;
48550;SDS011;34397;51.176;6.738;2024-02-26T09:55:02;2.92;;;1.38;;
48550;SDS011;34397;51.176;6.738;2024-02-26T09:57:35;2.08;;;1.40;;
48550;SDS011;34397;51.176;6.738;2024-02-26T10:00:10;4.30;;;1.80;;
48550;SDS011;34397;51.176;6.738;2024-02-26T10:02:49;2.45;;;1.45;;
48550;SDS011;34397;51.176;6.738;2024-02-26T10:05:22;2.75;;;1.60;;
48550;SDS011;34397;51.176;6.738;2024-02-26T10:07:55;3.67;;;1.63;;
48550;SDS011;34397;51.176;6.738;2024-02-26T10:10:30;3.80;;;1.60;;
48550;SDS011;34397;51.176;6.738;2024-02-26T10:13:04;4.45;;;1.45;;
48550;SDS011;34397;51.176;6.738;2024-02-26T10:15:41;2.78;;;1.65;;
48550;SDS011;34397;51.176;6.738;2024-02-26T10:18:13;3.30;;;1.77;;
48550;SDS011;34397;51.176;6.738;2024-02-26T10:20:54;2.45;;;1.60;;
48550;SDS011;34397;51.176;6.738;2024-02-26T10:23:31;2.55;;;1.42;;
48550;SDS011;34397;51.176;6.738;2024-02-26T10:26:02;5.40;;;1.83;;
48550;SDS011;34397;51.176;6.738;2024-02-26T10:28:34;3.15;;;1.55;;
48550;SDS011;34397;51.176;6.738;2024-02-26T10:31:08;3.83;;;1.73;;
48550;SDS011;34397;51.176;6.738;2024-02-26T10:33:42;2.45;;;1.60;;
48550;SDS011;34397;51.176;6.738;2024-02-26T10:36:14;4.18;;;1.70;;
48550;SDS011;34397;51.176;6.738;2024-02-26T10:38:46;2.03;;;1.50;;
48550;SDS011;34397;51.176;6.738;2024-02-26T10:41:19;3.08;;;1.50;;
48550;SDS011;34397;51.176;6.738;2024-02-26T10:43:51;3.33;;;1.65;;
48550;SDS011;34397;51.176;6.738;2024-02-26T10:46:24;3.40;;;1.70;;
48550;SDS011;34397;51.176;6.738;2024-02-26T10:48:56;3.88;;;1.67;;
48550;SDS011;34397;51.176;6.738;2024-02-26T10:51:30;3.15;;;1.75;;
48550;SDS011;34397;51.176;6.738;2024-02-26T10:54:02;3.08;;;1.80;;
48550;SDS011;34397;51.176;6.738;2024-02-26T10:56:37;2.53;;;1.70;;
48550;SDS011;34397;51.176;6.738;2024-02-26T10:59:13;3.47;;;1.70;;
48550;SDS011;34397;51.176;6.738;2024-02-26T11:01:52;2.55;;;1.60;;
48550;SDS011;34397;51.176;6.738;2024-02-26T11:04:25;3.78;;;2.22;;
48550;SDS011;34397;51.176;6.738;2024-02-26T11:06:59;3.75;;;2.00;;
48550;SDS011;34397;51.176;6.738;2024-02-26T11:09:32;3.35;;;1.77;;
48550;SDS011;34397;51.176;6.738;2024-02-26T11:12:04;4.05;;;1.95;;
48550;SDS011;34397;51.176;6.738;2024-02-26T11:14:40;2.78;;;1.73;;
48550;SDS011;34397;51.176;6.738;2024-02-26T11:17:15;3.22;;;1.60;;
48550;SDS011;34397;51.176;6.738;2024-02-26T11:19:49;2.42;;;1.75;;
48550;SDS011;34397;51.176;6.738;2024-02-26T11:22:23;4.43;;;2.25;;
48550;SDS011;34397;51.176;6.738;2024-02-26T11:27:30;2.95;;;1.80;;
48550;SDS011;34397;51.176;6.738;2024-02-26T11:30:08;4.15;;;2.05;;
48550;SDS011;34397;51.176;6.738;2024-02-26T11:32:44;3.72;;;1.95;;
48550;SDS011;34397;51.176;6.738;2024-02-26T11:35:17;3.38;;;1.92;;
48550;SDS011;34397;51.176;6.738;2024-02-26T11:40:26;4.65;;;2.10;;
48550;SDS011;34397;51.176;6.738;2024-02-26T11:45:49;5.65;;;2.22;;
48550;SDS011;34397;51.176;6.738;2024-02-26T11:48:24;5.82;;;2.25;;
48550;SDS011;34397;51.176;6.738;2024-02-26T11:50:57;3.50;;;2.20;;
48550;SDS011;34397;51.176;6.738;2024-02-26T11:53:30;3.72;;;2.30;;
48550;SDS011;34397;51.176;6.738;2024-02-26T11:56:12;4.72;;;2.33;;
48550;SDS011;34397;51.176;6.738;2024-02-26T11:59:03;5.00;;;2.80;;
48550;SDS011;34397;51.176;6.738;2024-02-26T12:01:38;3.20;;;2.53;;
48550;SDS011;34397;51.176;6.738;2024-02-26T12:04:13;4.65;;;2.65;;
48550;SDS011;34397;51.176;6.738;2024-02-26T12:06:50;5.85;;;2.72;;
48550;SDS011;34397;51.176;6.738;2024-02-26T12:09:31;3.88;;;2.65;;
48550;SDS011;34397;51.176;6.738;2024-02-26T12:12:08;3.50;;;2.50;;
48550;SDS011;34397;51.176;6.738;2024-02-26T12:14:50;3.95;;;2.70;;
48550;SDS011;34397;51.176;6.738;2024-02-26T12:17:24;7.70;;;2.80;;
48550;SDS011;34397;51.176;6.738;2024-02-26T12:20:08;5.88;;;2.72;;
48550;SDS011;34397;51.176;6.738;2024-02-26T12:22:41;3.63;;;2.70;;
48550;SDS011;34397;51.176;6.738;2024-02-26T12:25:16;5.70;;;3.20;;
48550;SDS011;34397;51.176;6.738;2024-02-26T12:27:53;4.68;;;3.00;;
48550;SDS011;34397;51.176;6.738;2024-02-26T12:30:26;6.35;;;3.45;;
48550;SDS011;34397;51.176;6.738;2024-02-26T12:32:59;5.65;;;3.42;;
48550;SDS011;34397;51.176;6.738;2024-02-26T12:35:33;5.28;;;3.72;;
48550;SDS011;34397;51.176;6.738;2024-02-26T12:38:06;5.93;;;3.47;;
48550;SDS011;34397;51.176;6.738;2024-02-26T12:43:10;6.28;;;4.05;;
48550;SDS011;34397;51.176;6.738;2024-02-26T12:45:43;6.28;;;4.30;;
48550;SDS011;34397;51.176;6.738;2024-02-26T12:48:16;7.00;;;4.03;;
48550;SDS011;34397;51.176;6.738;2024-02-26T12:50:49;6.07;;;4.57;;
48550;SDS011;34397;51.176;6.738;2024-02-26T12:53:21;7.13;;;4.68;;
48550;SDS011;34397;51.176;6.738;2024-02-26T12:55:53;9.30;;;4.45;;
48550;SDS011;34397;51.176;6.738;2024-02-26T13:00:57;7.53;;;4.95;;
48550;SDS011;34397;51.176;6.738;2024-02-26T13:03:29;8.00;;;4.80;;
48550;SDS011;34397;51.176;6.738;2024-02-26T13:08:37;7.15;;;4.95;;
48550;SDS011;34397;51.176;6.738;2024-02-26T13:11:09;7.50;;;5.35;;
48550;SDS011;34397;51.176;6.738;2024-02-26T13:13:41;6.72;;;5.18;;
48550;SDS011;34397;51.176;6.738;2024-02-26T13:16:13;8.20;;;5.45;;
48550;SDS011;34397;51.176;6.738;2024-02-26T13:18:46;8.30;;;5.57;;
48550;SDS011;34397;51.176;6.738;2024-02-26T13:21:19;9.38;;;5.78;;
48550;SDS011;34397;51.176;6.738;2024-02-26T13:23:52;12.48;;;5.40;;
48550;SDS011;34397;51.176;6.738;2024-02-26T13:29:00;8.48;;;5.22;;
48550;SDS011;34397;51.176;6.738;2024-02-26T13:31:38;7.93;;;5.45;;
48550;SDS011;34397;51.176;6.738;2024-02-26T13:34:10;8.50;;;5.03;;
48550;SDS011;34397;51.176;6.738;2024-02-26T13:36:44;8.07;;;5.03;;
48550;SDS011;34397;51.176;6.738;2024-02-26T13:39:21;8.18;;;5.60;;
48550;SDS011;34397;51.176;6.738;2024-02-26T13:41:54;7.85;;;5.00;;
48550;SDS011;34397;51.176;6.738;2024-02-26T13:44:27;8.45;;;5.57;;
48550;SDS011;34397;51.176;6.738;2024-02-26T13:46:58;7.75;;;4.78;;
48550;SDS011;34397;51.176;6.738;2024-02-26T13:49:30;9.27;;;5.22;;
48550;SDS011;34397;51.176;6.738;2024-02-26T17:18:21;5.85;;;3.30;;
48550;SDS011;34397;51.176;6.738;2024-02-26T17:20:53;4.60;;;2.92;;
48550;SDS011;34397;51.176;6.738;2024-02-26T17:23:27;4.63;;;3.22;;
48550;SDS011;34397;51.176;6.738;2024-02-26T17:26:02;4.55;;;2.80;;
48550;SDS011;34397;51.176;6.738;2024-02-26T17:28:38;3.92;;;3.00;;
48550;SDS011;34397;51.176;6.738;2024-02-26T17:31:12;3.95;;;2.55;;
48550;SDS011;34397;51.176;6.738;2024-02-26T17:33:48;4.28;;;2.88;;
48550;SDS011;34397;51.176;6.738;2024-02-26T17:36:20;4.35;;;2.85;;
48550;SDS011;34397;51.176;6.738;2024-02-26T17:38:52;3.80;;;2.75;;
48550;SDS011;34397;51.176;6.738;2024-02-26T17:41:24;5.00;;;2.78;;
48550;SDS011;34397;51.176;6.738;2024-02-26T17:43:56;3.25;;;2.67;;
48550;SDS011;34397;51.176;6.738;2024-02-26T17:46:27;5.32;;;2.67;;
48550;SDS011;34397;51.176;6.738;2024-02-26T17:49:01;4.78;;;2.70;;
48550;SDS011;34397;51.176;6.738;2024-02-26T17:51:33;3.95;;;2.75;;
48550;SDS011;34397;51.176;6.738;2024-02-26T17:54:05;6.00;;;3.00;;
48550;SDS011;34397;51.176;6.738;2024-02-26T17:56:36;5.28;;;2.78;;
48550;SDS011;34397;51.176;6.738;2024-02-26T17:59:08;4.45;;;2.75;;
48550;SDS011;34397;51.176;6.738;2024-02-26T18:01:40;4.82;;;3.05;;
48550;SDS011;34397;51.176;6.738;2024-02-26T18:04:13;4.60;;;3.05;;
48550;SDS011;34397;51.176;6.738;2024-02-26T18:06:45;5.88;;;3.08;;
48550;SDS011;34397;51.176;6.738;2024-02-26T18:09:17;4.22;;;2.80;;
48550;SDS011;34397;51.176;6.738;2024-02-26T18:11:51;6.65;;;3.20;;
48550;SDS011;34397;51.176;6.738;2024-02-26T18:14:25;4.30;;;2.88;;
48550;SDS011;34397;51.176;6.738;2024-02-26T18:16:57;7.82;;;2.72;;
48550;SDS011;34397;51.176;6.738;2024-02-26T18:19:30;5.00;;;3.00;;
48550;SDS011;34397;51.176;6.738;2024-02-26T18:22:03;4.28;;;3.05;;
48550;SDS011;34397;51.176;6.738;2024-02-26T18:24:35;3.88;;;2.95;;
48550;SDS011;34397;51.176;6.738;2024-02-26T18:27:07;4.78;;;2.83;;
48550;SDS011;34397;51.176;6.738;2024-02-26T18:29:39;4.72;;;2.78;;
48550;SDS011;34397;51.176;6.738;2024-02-26T18:32:10;5.20;;;2.92;;
48550;SDS011;34397;51.176;6.738;2024-02-26T18:34:44;4.13;;;2.95;;
48550;SDS011;34397;51.176;6.738;2024-02-26T18:37:15;3.58;;;2.40;;
48550;SDS011;34397;51.176;6.738;2024-02-26T18:39:47;5.28;;;2.90;;
48550;SDS011;34397;51.176;6.738;2024-02-26T18:42:20;3.90;;;2.60;;
48550;SDS011;34397;51.176;6.738;2024-02-26T18:44:52;4.72;;;2.80;;
48550;SDS011;34397;51.176;6.738;2024-02-26T18:47:26;3.30;;;2.70;;
48550;SDS011;34397;51.176;6.738;2024-02-26T18:50:00;3.47;;;2.72;;
48550;SDS011;34397;51.176;6.738;2024-02-26T18:52:32;4.45;;;2.83;;
48550;SDS011;34397;51.176;6.738;2024-02-26T18:55:04;3.20;;;2.58;;
48550;SDS011;34397;51.176;6.738;2024-02-26T18:57:36;4.57;;;2.92;;
48550;SDS011;34397;51.176;6.738;2024-02-26T19:00:10;4.47;;;3.00;;
48550;SDS011;34397;51.176;6.738;2024-02-26T19:02:42;3.08;;;2.55;;
48550;SDS011;34397;51.176;6.738;2024-02-26T19:05:15;3.75;;;2.45;;
48550;SDS011;34397;51.176;6.738;2024-02-26T19:07:52;4.65;;;2.90;;
48550;SDS011;34397;51.176;6.738;2024-02-26T19:10:28;4.22;;;2.70;;
48550;SDS011;34397;51.176;6.738;2024-02-26T19:13:00;3.80;;;2.65;;